Time;durP1;ratioP1;P1;durP2;ratioP2;P2;SDS_P1;SDS_P2;PMS_P1;PMS_P2;Temp;Humidity;BMP_temperature;BMP_pressure;BME280_temperature;BME280_humidity;BME280_pressure;Samples;Min_cycle;Max_cycle;Signal;HPM_P1;HPM_P2
2022/02/23 00:00:18;;;;;;;10.63;5.18;;;2.80;81.20;;;;;;5035575;28;20147;-84
2022/02/23 00:02:44;;;;;;;12.27;6.07;;;2.70;81.50;;;;;;5035386;28;20115;-82
2022/02/23 00:05:11;;;;;;;13.98;7.15;;;2.70;81.60;;;;;;5035987;28;20064;-83
2022/02/23 00:07:37;;;;;;;10.10;5.43;;;2.60;81.90;;;;;;5018380;28;20566;-82
2022/02/23 00:10:03;;;;;;;12.50;5.88;;;2.60;82.20;;;;;;5036123;28;20021;-83
2022/02/23 00:12:29;;;;;;;9.63;5.00;;;2.60;82.60;;;;;;5017803;28;20033;-83
2022/02/23 00:14:57;;;;;;;8.70;4.80;;;2.60;82.20;;;;;;5017572;28;20033;-84
2022/02/23 00:17:25;;;;;;;9.50;4.70;;;2.60;82.80;;;;;;5035650;28;20021;-83
2022/02/23 00:19:55;;;;;;;8.23;4.72;;;2.50;82.40;;;;;;5035845;28;20036;-83
2022/02/23 00:22:21;;;;;;;10.85;5.30;;;2.50;83.00;;;;;;5017781;28;20021;-84
2022/02/23 00:24:46;;;;;;;9.18;5.28;;;2.40;83.30;;;;;;5032548;28;20050;-84
2022/02/23 00:27:12;;;;;;;8.70;4.60;;;2.40;83.40;;;;;;5034157;28;20103;-84
2022/02/23 00:33:07;;;;;;;9.05;4.53;;;2.40;85.00;;;;;;5035371;28;20048;-84
2022/02/23 00:38:55;;;;;;;8.00;4.35;;;2.30;85.00;;;;;;5035527;28;20109;-85
2022/02/23 00:44:43;;;;;;;5.53;3.40;;;2.20;84.30;;;;;;5035011;28;20060;-83
2022/02/23 00:50:31;;;;;;;5.55;3.42;;;2.20;86.10;;;;;;5034969;28;20016;-82
2022/02/23 00:52:57;;;;;;;6.15;3.65;;;2.20;84.60;;;;;;5016756;28;20116;-83
2022/02/23 00:55:23;;;;;;;6.60;3.33;;;2.20;84.60;;;;;;5034927;28;20104;-85
2022/02/23 00:57:49;;;;;;;6.20;3.40;;;2.20;84.70;;;;;;5034713;28;20079;-83
2022/02/23 01:00:15;;;;;;;5.95;3.53;;;2.20;84.80;;;;;;5034633;28;20025;-84
2022/02/23 01:02:40;;;;;;;6.13;3.65;;;2.10;84.90;;;;;;5035123;28;20025;-84
2022/02/23 01:05:07;;;;;;;6.55;3.78;;;2.10;85.20;;;;;;5034607;28;20028;-83
2022/02/23 01:07:33;;;;;;;5.65;3.35;;;2.00;85.60;;;;;;5034782;28;20021;-83
2022/02/23 01:09:58;;;;;;;5.80;3.08;;;2.00;85.70;;;;;;5034485;28;20025;-83
2022/02/23 01:12:24;;;;;;;7.05;3.65;;;2.00;86.10;;;;;;5034278;28;20447;-83
2022/02/23 01:14:50;;;;;;;6.25;3.30;;;2.00;86.80;;;;;;5016694;28;20072;-83
2022/02/23 01:17:15;;;;;;;6.97;3.70;;;2.00;86.30;;;;;;5034546;28;20033;-83
2022/02/23 01:19:41;;;;;;;6.80;3.38;;;2.00;86.50;;;;;;5034012;28;20025;-83
2022/02/23 01:22:07;;;;;;;5.20;3.40;;;2.00;86.50;;;;;;5016793;28;20030;-82
2022/02/23 01:24:32;;;;;;;5.85;3.40;;;2.00;86.70;;;;;;5016424;28;20371;-83
2022/02/23 01:26:58;;;;;;;5.50;3.35;;;2.00;86.70;;;;;;5034428;28;20100;-82
2022/02/23 01:29:24;;;;;;;6.40;3.67;;;2.00;86.70;;;;;;5032841;28;20025;-82
2022/02/23 01:31:49;;;;;;;6.70;3.33;;;2.00;86.50;;;;;;5034222;28;20013;-82
2022/02/23 01:34:15;;;;;;;5.20;3.03;;;2.00;86.90;;;;;;5034187;28;20455;-84
2022/02/23 01:36:41;;;;;;;4.35;2.83;;;2.00;86.90;;;;;;5016177;28;20099;-83
2022/02/23 01:39:06;;;;;;;5.25;2.90;;;2.00;86.80;;;;;;5016582;28;20074;-83
2022/02/23 01:41:32;;;;;;;6.38;3.38;;;1.90;86.20;;;;;;5016266;28;20136;-83
2022/02/23 01:43:58;;;;;;;5.05;3.00;;;1.90;86.80;;;;;;5034045;28;20049;-84
2022/02/23 01:46:23;;;;;;;7.35;3.85;;;1.90;86.80;;;;;;5034184;28;20025;-83
2022/02/23 01:48:49;;;;;;;6.82;3.90;;;1.80;87.30;;;;;;5016511;28;20053;-84
2022/02/23 01:51:15;;;;;;;7.85;4.35;;;1.80;87.80;;;;;;5033714;28;20039;-84
2022/02/23 01:53:41;;;;;;;8.77;3.90;;;1.80;87.80;;;;;;5033851;28;20025;-84
2022/02/23 01:56:07;;;;;;;8.60;4.55;;;1.80;88.10;;;;;;5016788;28;20040;-84
2022/02/23 01:58:32;;;;;;;7.07;3.80;;;1.80;88.40;;;;;;5033858;28;20032;-84
2022/02/23 02:00:58;;;;;;;7.53;3.70;;;1.80;88.20;;;;;;5033985;28;20029;-84
2022/02/23 02:03:25;;;;;;;7.22;3.83;;;1.80;87.90;;;;;;5034264;28;20025;-84
2022/02/23 02:05:51;;;;;;;6.75;3.65;;;1.80;88.90;;;;;;5036145;28;20049;-85
2022/02/23 02:08:16;;;;;;;7.22;3.63;;;1.80;88.20;;;;;;5020826;28;20087;-84
2022/02/23 02:10:42;;;;;;;7.07;3.65;;;1.70;88.60;;;;;;5020522;28;20493;-85
2022/02/23 02:13:08;;;;;;;6.93;3.70;;;1.70;88.70;;;;;;5038462;28;20021;-85
2022/02/23 02:15:34;;;;;;;7.75;4.00;;;1.70;89.00;;;;;;5020443;28;20144;-85
2022/02/23 02:17:59;;;;;;;7.30;3.85;;;1.70;89.60;;;;;;5038688;28;20104;-84
2022/02/23 02:20:25;;;;;;;7.97;3.78;;;1.70;90.00;;;;;;5020663;28;20112;-84
2022/02/23 02:22:51;;;;;;;7.70;4.28;;;1.70;89.30;;;;;;5019761;28;20451;-84
2022/02/23 02:25:16;;;;;;;6.53;3.80;;;1.70;90.10;;;;;;5037487;28;20049;-84
2022/02/23 02:27:42;;;;;;;8.38;3.70;;;1.70;89.60;;;;;;5037836;28;20028;-84
2022/02/23 02:30:08;;;;;;;8.35;4.20;;;1.70;90.10;;;;;;5038417;28;20383;-83
2022/02/23 02:32:34;;;;;;;6.35;3.88;;;1.70;89.80;;;;;;5037385;28;20083;-83
2022/02/23 02:35:01;;;;;;;6.28;3.60;;;1.70;90.10;;;;;;5019407;28;20029;-84
2022/02/23 02:37:27;;;;;;;7.00;3.90;;;1.60;89.70;;;;;;5037641;28;20057;-83
2022/02/23 02:39:53;;;;;;;6.10;3.60;;;1.50;90.10;;;;;;5037020;28;20025;-83
2022/02/23 02:42:19;;;;;;;6.32;3.63;;;1.50;90.00;;;;;;5037394;28;20028;-83
2022/02/23 02:44:45;;;;;;;8.57;4.00;;;1.40;90.30;;;;;;5037472;28;20014;-84
2022/02/23 02:47:11;;;;;;;7.20;3.50;;;1.40;90.80;;;;;;5019624;28;20052;-84
2022/02/23 02:49:38;;;;;;;5.70;3.65;;;1.30;91.20;;;;;;5019342;28;20021;-83
2022/02/23 02:52:05;;;;;;;7.03;3.88;;;1.30;91.10;;;;;;5037235;28;20022;-84
2022/02/23 02:54:31;;;;;;;6.00;3.90;;;1.20;91.00;;;;;;5018979;28;20495;-84
2022/02/23 02:56:57;;;;;;;8.32;4.18;;;1.20;91.30;;;;;;5036856;28;20072;-83
2022/02/23 02:59:23;;;;;;;8.35;4.35;;;1.20;91.60;;;;;;5037320;28;20463;-83
2022/02/23 03:01:48;;;;;;;8.02;5.10;;;1.20;91.80;;;;;;5019437;28;20014;-84
2022/02/23 03:04:14;;;;;;;7.93;5.22;;;1.20;92.40;;;;;;5019233;28;20467;-84
2022/02/23 03:06:40;;;;;;;10.77;6.57;;;1.20;92.00;;;;;;5020269;28;20041;-84
2022/02/23 03:09:07;;;;;;;8.77;5.80;;;1.20;92.40;;;;;;5036750;28;20447;-84
2022/02/23 03:11:33;;;;;;;11.32;7.13;;;1.20;92.20;;;;;;5036897;28;20028;-84
2022/02/23 03:13:59;;;;;;;10.27;6.43;;;1.10;93.00;;;;;;5037100;28;20109;-84
2022/02/23 03:16:25;;;;;;;9.32;5.88;;;1.10;93.20;;;;;;5018611;28;20392;-85
2022/02/23 03:18:50;;;;;;;12.52;5.68;;;1.10;92.80;;;;;;5040539;28;20021;-85
2022/02/23 03:21:16;;;;;;;7.72;5.03;;;1.10;93.30;;;;;;5027843;28;20022;-85
2022/02/23 03:23:42;;;;;;;8.00;5.30;;;1.10;93.60;;;;;;5042141;28;20021;-85
2022/02/23 03:26:10;;;;;;;9.32;5.03;;;1.20;93.90;;;;;;5036825;28;20518;-84
2022/02/23 03:28:37;;;;;;;8.68;4.63;;;1.20;93.50;;;;;;5035209;28;20047;-84
2022/02/23 03:31:03;;;;;;;8.25;4.72;;;1.30;93.80;;;;;;5036681;28;20025;-85
2022/02/23 03:33:29;;;;;;;8.98;4.70;;;1.30;93.90;;;;;;5018390;28;20144;-83
2022/02/23 03:35:55;;;;;;;11.93;5.80;;;1.40;93.50;;;;;;5036653;28;20098;-83
2022/02/23 03:38:22;;;;;;;12.32;6.28;;;1.40;93.40;;;;;;5018470;28;20455;-83
2022/02/23 03:40:47;;;;;;;14.45;6.85;;;1.40;93.40;;;;;;5036570;28;20017;-83
2022/02/23 03:43:17;;;;;;;14.55;7.25;;;1.40;93.50;;;;;;5036721;28;20047;-84
2022/02/23 03:45:43;;;;;;;13.10;6.47;;;1.40;93.40;;;;;;5035086;28;20084;-84
2022/02/23 03:48:09;;;;;;;13.02;6.18;;;1.30;93.80;;;;;;5019370;28;20022;-84
2022/02/23 03:50:35;;;;;;;11.13;5.65;;;1.30;94.00;;;;;;5035036;28;20095;-84
2022/02/23 03:53:00;;;;;;;8.25;4.63;;;1.30;93.70;;;;;;5036420;28;20022;-84
2022/02/23 03:55:26;;;;;;;8.27;4.90;;;1.20;93.80;;;;;;5037150;28;20025;-84
2022/02/23 03:57:52;;;;;;;6.95;3.92;;;1.20;94.60;;;;;;5018865;28;20052;-84
2022/02/23 04:00:17;;;;;;;10.32;4.18;;;1.20;94.10;;;;;;5019176;28;20029;-84
2022/02/23 04:02:44;;;;;;;7.25;3.90;;;1.20;94.30;;;;;;5036521;28;20100;-84
2022/02/23 04:05:11;;;;;;;6.95;4.03;;;1.10;94.50;;;;;;5035857;28;20021;-83
2022/02/23 04:07:37;;;;;;;8.75;4.30;;;1.10;95.20;;;;;;5036174;28;20022;-83
2022/02/23 04:10:04;;;;;;;7.78;4.82;;;1.10;94.90;;;;;;5018471;28;20017;-84
2022/02/23 04:12:30;;;;;;;17.40;8.05;;;1.00;94.80;;;;;;5018630;28;20033;-84
2022/02/23 04:14:55;;;;;;;20.50;11.13;;;1.00;95.10;;;;;;5017713;28;20367;-83
2022/02/23 04:17:21;;;;;;;23.98;12.30;;;1.00;95.50;;;;;;5018375;28;20068;-84
2022/02/23 04:19:47;;;;;;;44.78;20.55;;;1.00;95.90;;;;;;5017813;28;20466;-84
2022/02/23 04:22:13;;;;;;;54.22;23.13;;;0.90;95.70;;;;;;5035817;28;20028;-84
2022/02/23 04:24:38;;;;;;;47.67;22.15;;;0.90;95.70;;;;;;5017606;28;20033;-85
2022/02/23 04:27:04;;;;;;;53.38;24.95;;;0.90;96.00;;;;;;5038012;28;20036;-84
2022/02/23 04:29:31;;;;;;;51.25;25.13;;;0.90;96.50;;;;;;5018400;28;20040;-85
2022/02/23 04:31:58;;;;;;;60.30;27.50;;;0.90;96.60;;;;;;5017816;28;20025;-84
2022/02/23 04:34:24;;;;;;;89.05;37.78;;;0.90;97.30;;;;;;5035405;28;20025;-84
2022/02/23 04:36:51;;;;;;;103.28;39.83;;;0.90;97.10;;;;;;5017455;28;20060;-85
2022/02/23 04:39:17;;;;;;;121.63;45.88;;;0.90;97.00;;;;;;5017774;28;20025;-84
2022/02/23 04:41:43;;;;;;;116.03;40.67;;;0.90;97.10;;;;;;5017496;28;20071;-85
2022/02/23 04:44:09;;;;;;;102.70;39.22;;;0.90;97.50;;;;;;5035027;28;20061;-85
2022/02/23 04:46:35;;;;;;;92.20;34.92;;;1.00;98.10;;;;;;5018058;28;20448;-85
2022/02/23 04:49:03;;;;;;;70.32;27.40;;;1.00;98.70;;;;;;5017347;28;20033;-84
2022/02/23 04:51:30;;;;;;;59.10;22.98;;;1.10;98.70;;;;;;5035326;28;20036;-84
2022/02/23 04:54:00;;;;;;;45.72;19.00;;;1.20;98.60;;;;;;5033328;28;20071;-83
2022/02/23 04:56:26;;;;;;;35.38;15.35;;;1.30;98.80;;;;;;5017007;28;20060;-83
2022/02/23 04:58:52;;;;;;;35.80;15.30;;;1.50;98.70;;;;;;5034759;28;20025;-83
2022/02/23 05:01:18;;;;;;;23.83;11.55;;;1.60;98.90;;;;;;5016259;28;20025;-83
2022/02/23 05:03:44;;;;;;;19.13;9.77;;;1.70;98.50;;;;;;5016917;28;20049;-83
2022/02/23 05:06:10;;;;;;;15.88;8.60;;;1.80;98.30;;;;;;5016899;28;20025;-83
2022/02/23 05:08:36;;;;;;;15.13;8.75;;;1.80;98.10;;;;;;5034813;28;20025;-84
2022/02/23 05:11:02;;;;;;;18.27;9.77;;;1.90;97.70;;;;;;5034605;28;20468;-83
2022/02/23 05:13:31;;;;;;;18.70;10.63;;;1.90;97.60;;;;;;5016610;28;20555;-83
2022/02/23 05:16:00;;;;;;;21.38;11.77;;;2.00;97.30;;;;;;5033897;28;20036;-83
2022/02/23 05:18:27;;;;;;;26.40;14.35;;;2.00;97.20;;;;;;5016348;28;20032;-84
2022/02/23 05:20:54;;;;;;;23.17;13.40;;;2.00;97.30;;;;;;5016807;28;20037;-85
2022/02/23 05:23:20;;;;;;;23.70;13.70;;;2.10;97.30;;;;;;5016252;28;20013;-85
2022/02/23 05:25:46;;;;;;;30.20;15.15;;;2.10;97.40;;;;;;5034085;28;20049;-85
2022/02/23 05:28:12;;;;;;;25.55;13.63;;;2.20;97.20;;;;;;5035133;28;20021;-85
2022/02/23 05:30:37;;;;;;;25.20;13.32;;;2.30;96.80;;;;;;5034668;28;20081;-84
2022/02/23 05:33:04;;;;;;;23.48;12.73;;;2.30;96.70;;;;;;5035136;28;20048;-82
2022/02/23 05:35:30;;;;;;;20.55;11.27;;;2.30;96.90;;;;;;5028282;28;20009;-88
2022/02/23 05:37:56;;;;;;;71.00;31.25;;;2.30;96.90;;;;;;5038813;28;20030;-90
2022/02/23 05:40:22;;;;;;;124.07;50.65;;;2.40;96.70;;;;;;5040273;28;20036;-90
2022/02/23 05:42:48;;;;;;;106.20;44.65;;;2.40;96.40;;;;;;5022633;28;20029;-85
2022/02/23 05:45:13;;;;;;;84.35;38.15;;;2.40;96.30;;;;;;5036784;28;20435;-88
2022/02/23 05:47:39;;;;;;;61.35;30.00;;;2.30;96.10;;;;;;5017892;28;20125;-86
2022/02/23 05:50:06;;;;;;;52.35;23.65;;;2.30;96.10;;;;;;5015945;28;20017;-88
2022/02/23 05:52:32;;;;;;;40.25;19.38;;;2.20;96.60;;;;;;5033405;28;20025;-88
2022/02/23 05:54:58;;;;;;;34.40;17.52;;;2.20;96.90;;;;;;5015956;28;20029;-86
2022/02/23 05:57:23;;;;;;;27.05;15.43;;;2.20;97.00;;;;;;5034145;28;20022;-88
2022/02/23 05:59:50;;;;;;;26.63;15.13;;;2.30;97.20;;;;;;5033609;28;20484;-87
2022/02/23 06:02:16;;;;;;;25.60;15.20;;;2.30;97.50;;;;;;5015888;28;20337;-89
2022/02/23 06:04:42;;;;;;;25.85;15.63;;;2.30;97.60;;;;;;5035654;28;20108;-87
2022/02/23 06:07:07;;;;;;;25.88;16.92;;;2.40;97.90;;;;;;5018934;28;20412;-87
2022/02/23 06:09:34;;;;;;;27.35;16.23;;;2.40;97.90;;;;;;5017600;28;20036;-84
2022/02/23 06:12:00;;;;;;;25.23;14.52;;;2.50;98.10;;;;;;5016924;28;20022;-86
2022/02/23 06:14:27;;;;;;;24.00;13.55;;;2.50;98.20;;;;;;5033391;28;20515;-84
2022/02/23 06:16:59;;;;;;;32.25;18.65;;;2.60;98.40;;;;;;5031865;28;20041;-83
2022/02/23 06:19:25;;;;;;;51.90;25.88;;;2.60;98.50;;;;;;5015579;28;20029;-84
2022/02/23 06:21:52;;;;;;;51.05;25.65;;;2.70;99.20;;;;;;5032176;28;20047;-83
2022/02/23 06:24:19;;;;;;;41.67;21.02;;;2.80;99.10;;;;;;5015383;28;20030;-81
2022/02/23 06:26:44;;;;;;;31.27;16.92;;;2.90;98.80;;;;;;5033472;28;20383;-82
2022/02/23 06:29:10;;;;;;;28.38;15.07;;;3.00;98.70;;;;;;5015071;28;20018;-84
2022/02/23 06:31:37;;;;;;;21.45;11.88;;;3.10;98.50;;;;;;5031995;28;20025;-84
2022/02/23 06:34:03;;;;;;;20.05;10.63;;;3.20;98.50;;;;;;5015628;28;20021;-82
2022/02/23 06:36:29;;;;;;;20.45;9.55;;;3.30;98.40;;;;;;5031624;28;20367;-87
2022/02/23 06:38:55;;;;;;;17.38;9.70;;;3.40;98.20;;;;;;5033244;28;20029;-87
2022/02/23 06:41:24;;;;;;;17.67;9.25;;;3.40;98.00;;;;;;5015318;28;20105;-83
2022/02/23 06:43:51;;;;;;;15.40;8.50;;;3.50;97.70;;;;;;5033452;28;20320;-89
2022/02/23 06:46:18;;;;;;;14.35;8.07;;;3.70;97.60;;;;;;5033081;28;20451;-85
2022/02/23 06:48:43;;;;;;;12.52;7.10;;;3.70;97.40;;;;;;5016348;28;20018;-84
2022/02/23 06:51:15;;;;;;;12.88;6.90;;;3.90;97.20;;;;;;5016885;28;20554;-84
2022/02/23 06:53:41;;;;;;;11.52;6.20;;;4.00;96.90;;;;;;5031089;28;20036;-85
2022/02/23 06:56:06;;;;;;;11.07;6.50;;;4.10;96.50;;;;;;5055315;28;20482;-84
2022/02/23 06:58:32;;;;;;;9.52;6.00;;;4.20;96.30;;;;;;5056030;28;20064;-89
2022/02/23 07:00:58;;;;;;;8.32;5.25;;;4.30;95.90;;;;;;5039012;28;20390;-89
2022/02/23 07:03:24;;;;;;;10.75;5.68;;;4.40;95.70;;;;;;5039128;28;20505;-85
2022/02/23 07:05:49;;;;;;;9.90;5.63;;;4.50;94.70;;;;;;5057597;28;20075;-91
2022/02/23 07:08:15;;;;;;;8.52;5.25;;;4.60;94.20;;;;;;5038927;28;20046;-84
2022/02/23 07:10:41;;;;;;;12.02;7.30;;;4.70;93.80;;;;;;5056443;28;20347;-86
2022/02/23 07:13:09;;;;;;;25.50;15.45;;;4.80;93.40;;;;;;5038910;28;20029;-86
2022/02/23 07:15:35;;;;;;;33.75;18.10;;;4.90;93.30;;;;;;5056559;28;20158;-87
2022/02/23 07:18:03;;;;;;;22.42;12.38;;;5.10;93.90;;;;;;5041653;28;20033;-89
2022/02/23 07:20:29;;;;;;;15.32;8.95;;;5.40;96.40;;;;;;5048902;28;20089;-84
2022/02/23 07:22:55;;;;;;;11.57;7.03;;;5.80;98.90;;;;;;5034044;28;20029;-84
2022/02/23 07:25:21;;;;;;;11.82;6.45;;;6.20;99.90;;;;;;5038159;28;20124;-85
2022/02/23 07:27:46;;;;;;;10.30;5.75;;;6.60;99.90;;;;;;5016846;28;20129;-85
2022/02/23 07:30:16;;;;;;;8.40;4.93;;;7.10;99.90;;;;;;5013987;28;20028;-85
2022/02/23 07:32:42;;;;;;;7.45;5.03;;;7.60;99.40;;;;;;5014435;28;20116;-85
2022/02/23 07:35:13;;;;;;;8.43;4.93;;;8.00;97.10;;;;;;5014279;28;20036;-84
2022/02/23 07:37:44;;;;;;;7.40;4.85;;;8.50;96.00;;;;;;5014270;28;20044;-84
2022/02/23 07:40:12;;;;;;;;;;;8.90;92.20;;;;;;5031337;28;20070;-85
2022/02/23 07:42:39;;;;;;;7.70;4.28;;;9.00;68.10;;;;;;5015255;28;19908;-85
2022/02/23 07:45:06;;;;;;;9.18;4.93;;;9.30;86.90;;;;;;5015887;28;20029;-85
2022/02/23 07:47:35;;;;;;;7.13;4.22;;;9.60;83.70;;;;;;5015500;28;20023;-84
2022/02/23 07:50:01;;;;;;;6.30;4.40;;;9.90;80.90;;;;;;5015567;28;20383;-85
2022/02/23 07:52:29;;;;;;;7.13;4.22;;;10.10;77.40;;;;;;5016179;28;20018;-84
2022/02/23 07:54:55;;;;;;;7.35;3.90;;;10.40;76.00;;;;;;5035436;28;20013;-84
2022/02/23 07:57:21;;;;;;;6.85;3.70;;;10.50;73.60;;;;;;5017726;28;20321;-84
2022/02/23 07:59:47;;;;;;;7.97;4.85;;;10.70;72.70;;;;;;5017509;28;20025;-84
2022/02/23 08:02:14;;;;;;;9.18;6.07;;;11.00;71.60;;;;;;5017093;28;20474;-84
2022/02/23 08:04:40;;;;;;;8.75;5.35;;;11.10;69.80;;;;;;5017590;28;20021;-84
2022/02/23 08:07:06;;;;;;;7.22;3.97;;;11.40;67.10;;;;;;5018715;28;20036;-84
2022/02/23 08:09:32;;;;;;;6.88;4.15;;;11.50;66.60;;;;;;5036458;28;20352;-84
2022/02/23 08:12:01;;;;;;;8.80;5.45;;;11.60;66.60;;;;;;5035727;28;20343;-83
2022/02/23 08:14:28;;;;;;;12.32;7.38;;;11.80;65.60;;;;;;5017432;28;20018;-84
2022/02/23 08:19:39;;;;;;;14.60;7.95;;;12.10;63.60;;;;;;5034941;28;20056;-83
2022/02/23 08:22:12;;;;;;;12.15;6.60;;;12.30;60.90;;;;;;5017194;28;20021;-84
2022/02/23 08:24:46;;;;;;;17.55;9.02;;;12.40;61.10;;;;;;5017518;28;20056;-84
2022/02/23 08:27:15;;;;;;;17.83;9.82;;;12.50;58.40;;;;;;5017451;28;20064;-84
2022/02/23 08:29:42;;;;;;;13.57;8.20;;;12.60;60.20;;;;;;5035415;28;20025;-85
2022/02/23 08:32:12;;;;;;;13.93;8.30;;;12.90;58.80;;;;;;5017077;28;20029;-85
2022/02/23 08:34:39;;;;;;;12.77;7.18;;;13.00;59.00;;;;;;5034893;28;20036;-84
2022/02/23 08:37:06;;;;;;;11.90;6.50;;;13.30;57.40;;;;;;5017011;28;20459;-84
2022/02/23 08:39:35;;;;;;;9.13;5.40;;;13.40;57.20;;;;;;5034884;28;20017;-83
2022/02/23 08:42:02;;;;;;;12.10;5.15;;;13.50;56.30;;;;;;5035095;28;20025;-84
2022/02/23 08:44:27;;;;;;;8.55;4.05;;;13.60;55.90;;;;;;5034998;28;20036;-84
2022/02/23 08:46:55;;;;;;;6.38;3.80;;;13.70;55.50;;;;;;5016945;28;20029;-84
2022/02/23 08:49:21;;;;;;;6.10;3.20;;;13.90;54.10;;;;;;5034612;28;20056;-85
2022/02/23 08:51:48;;;;;;;5.53;3.03;;;14.10;53.20;;;;;;5034848;28;20083;-86
2022/02/23 08:54:15;;;;;;;5.80;3.40;;;14.00;52.50;;;;;;5018055;28;20034;-85
2022/02/23 08:56:42;;;;;;;11.38;6.75;;;14.20;52.30;;;;;;5016434;28;20037;-85
2022/02/23 08:59:08;;;;;;;17.27;8.15;;;14.30;51.00;;;;;;5019845;28;20487;-85
2022/02/23 09:01:36;;;;;;;11.82;5.90;;;14.20;51.00;;;;;;5039272;28;20029;-85
2022/02/23 09:04:03;;;;;;;6.85;3.90;;;14.20;51.00;;;;;;5024911;28;20021;-85
2022/02/23 09:06:32;;;;;;;5.72;3.15;;;14.50;51.00;;;;;;5036122;28;20025;-85
2022/02/23 09:08:59;;;;;;;4.90;2.97;;;14.60;50.70;;;;;;5016765;28;20101;-85
2022/02/23 09:11:24;;;;;;;5.25;3.08;;;14.60;49.90;;;;;;5034423;28;20029;-87
2022/02/23 09:13:50;;;;;;;3.88;2.80;;;14.60;50.20;;;;;;5034171;28;20044;-86
2022/02/23 09:16:17;;;;;;;4.85;2.90;;;14.50;49.50;;;;;;5016730;28;20029;-85
2022/02/23 09:18:44;;;;;;;6.68;3.58;;;14.50;50.10;;;;;;5034103;28;20116;-83
2022/02/23 09:21:10;;;;;;;5.45;3.17;;;14.20;48.40;;;;;;5034211;28;20018;-86
2022/02/23 09:23:36;;;;;;;3.88;2.75;;;14.00;49.00;;;;;;5016339;28;20017;-86
2022/02/23 09:26:04;;;;;;;5.45;2.80;;;14.00;49.80;;;;;;5015793;28;20371;-84
2022/02/23 09:28:31;;;;;;;5.32;2.88;;;14.30;49.50;;;;;;5034062;28;20131;-84
2022/02/23 09:30:57;;;;;;;5.30;2.58;;;14.70;48.40;;;;;;5034286;28;20029;-84
2022/02/23 09:33:24;;;;;;;4.65;2.30;;;14.70;48.00;;;;;;5034062;28;20021;-85
2022/02/23 09:35:50;;;;;;;4.10;2.40;;;14.60;47.70;;;;;;5016130;28;20021;-85
2022/02/23 09:38:17;;;;;;;4.95;2.47;;;14.70;48.10;;;;;;5033709;28;20044;-86
2022/02/23 09:40:56;;;;;;;3.40;2.08;;;14.90;46.70;;;;;;5015815;28;20108;-85
2022/02/23 09:43:22;;;;;;;4.32;2.40;;;14.60;45.70;;;;;;5016109;28;20021;-84
2022/02/23 09:45:54;;;;;;;3.03;2.03;;;14.30;46.60;;;;;;5032228;28;20036;-84
2022/02/23 09:48:21;;;;;;;3.17;2.03;;;14.40;47.10;;;;;;5034119;28;20071;-85
2022/02/23 09:50:48;;;;;;;3.90;2.40;;;14.70;47.10;;;;;;5015874;28;20021;-84
2022/02/23 09:53:18;;;;;;;2.78;2.20;;;15.10;46.70;;;;;;5015585;28;20477;-85
2022/02/23 09:55:44;;;;;;;3.45;2.08;;;15.60;46.10;;;;;;5032747;28;20547;-84
2022/02/23 09:58:10;;;;;;;5.40;2.75;;;16.00;45.20;;;;;;5033578;28;20057;-85
2022/02/23 10:00:46;;;;;;;4.93;2.88;;;16.50;45.00;;;;;;5017008;28;20116;-84
2022/02/23 10:03:24;;;;;;;4.32;2.63;;;16.80;44.00;;;;;;5033233;28;20021;-85
2022/02/23 10:05:50;;;;;;;4.68;2.80;;;17.10;40.90;;;;;;5035810;28;20036;-85
2022/02/23 10:08:16;;;;;;;5.85;3.10;;;17.30;42.90;;;;;;5016488;28;20116;-84
2022/02/23 10:10:48;;;;;;;5.20;3.13;;;17.50;42.00;;;;;;5015871;28;20018;-84
2022/02/23 10:13:17;;;;;;;3.08;2.30;;;17.70;41.70;;;;;;5032858;28;20022;-84
2022/02/23 10:15:46;;;;;;;4.55;2.75;;;17.80;40.40;;;;;;5032940;28;20034;-85
2022/02/23 10:18:19;;;;;;;4.30;2.20;;;18.00;40.60;;;;;;5015882;28;20148;-84
2022/02/23 10:20:47;;;;;;;4.82;2.40;;;18.10;39.40;;;;;;5033691;28;20458;-85
2022/02/23 10:23:23;;;;;;;3.92;2.50;;;17.70;40.00;;;;;;5017762;28;20061;-85
2022/02/23 10:26:01;;;;;;;4.32;2.50;;;17.80;40.40;;;;;;5034854;28;20053;-84
2022/02/23 10:28:35;;;;;;;3.97;2.30;;;18.00;38.10;;;;;;5037401;28;20025;-85
2022/02/23 10:31:09;;;;;;;4.65;2.30;;;18.30;40.10;;;;;;5037591;28;20059;-84
2022/02/23 10:33:41;;;;;;;3.88;2.55;;;18.60;38.50;;;;;;5020183;28;20022;-84
2022/02/23 10:36:18;;;;;;;5.53;3.10;;;18.70;38.70;;;;;;5037992;28;20025;-85
2022/02/23 10:38:50;;;;;;;4.95;2.85;;;19.00;37.80;;;;;;5019744;28;20064;-85
2022/02/23 10:41:31;;;;;;;3.40;2.30;;;19.00;38.20;;;;;;5037069;28;20399;-85
2022/02/23 10:43:58;;;;;;;4.40;2.70;;;19.20;35.00;;;;;;5037788;28;20160;-84
2022/02/23 10:46:24;;;;;;;4.40;2.95;;;19.20;37.70;;;;;;5019676;28;20064;-85
2022/02/23 10:48:59;;;;;;;3.70;2.58;;;19.50;37.50;;;;;;5020487;28;20035;-85
2022/02/23 10:51:35;;;;;;;4.78;3.00;;;19.70;36.40;;;;;;5019332;28;20104;-84
2022/02/23 10:54:06;;;;;;;5.30;3.20;;;19.70;36.80;;;;;;5018547;28;20087;-85
2022/02/23 10:56:33;;;;;;;;;;;19.90;36.30;;;;;;5020269;28;20033;-85
2022/02/23 10:58:59;;;;;;;6.18;3.38;;;19.60;34.00;;;;;;5019579;28;20011;-85
2022/02/23 11:01:25;;;;;;;5.28;3.08;;;19.60;35.30;;;;;;5035823;28;20032;-85
2022/02/23 11:03:52;;;;;;;7.78;3.55;;;19.50;34.70;;;;;;5037113;28;20022;-85
2022/02/23 11:06:18;;;;;;;7.60;3.30;;;19.40;35.30;;;;;;5036921;28;20029;-84
2022/02/23 11:08:49;;;;;;;6.13;3.08;;;19.60;35.10;;;;;;5019306;28;20072;-85
2022/02/23 11:11:17;;;;;;;7.28;3.30;;;19.60;35.10;;;;;;5037853;28;20087;-84
2022/02/23 11:13:43;;;;;;;5.65;3.28;;;19.60;34.90;;;;;;5036943;28;20017;-86
2022/02/23 11:16:12;;;;;;;7.22;2.95;;;19.70;34.50;;;;;;5037037;28;20539;-86
2022/02/23 11:18:40;;;;;;;5.50;3.22;;;20.00;34.90;;;;;;5019133;28;20044;-85
2022/02/23 11:21:09;;;;;;;4.28;2.75;;;20.10;34.10;;;;;;5020114;28;20451;-86
2022/02/23 11:23:37;;;;;;;4.22;2.33;;;20.20;34.10;;;;;;5032891;28;20036;-86
2022/02/23 11:26:04;;;;;;;4.93;2.40;;;20.30;34.20;;;;;;5050696;28;20056;-86
2022/02/23 11:28:37;;;;;;;4.03;2.30;;;20.30;34.50;;;;;;5038332;28;20025;-84
2022/02/23 11:31:15;;;;;;;4.00;2.45;;;20.40;34.30;;;;;;5036737;28;20025;-84
2022/02/23 11:33:47;;;;;;;4.25;2.45;;;20.60;34.00;;;;;;5035719;28;20048;-84
2022/02/23 11:36:19;;;;;;;5.60;2.72;;;20.90;33.70;;;;;;5035487;28;20025;-84
2022/02/23 11:38:50;;;;;;;6.65;3.17;;;21.20;32.20;;;;;;5034982;28;20108;-84
2022/02/23 11:41:24;;;;;;;5.35;3.20;;;20.90;32.10;;;;;;5036339;28;20030;-85
2022/02/23 11:44:07;;;;;;;5.53;3.30;;;20.50;32.60;;;;;;5018414;28;20028;-83
2022/02/23 11:46:33;;;;;;;5.75;3.15;;;20.30;33.20;;;;;;5035158;28;20030;-83
2022/02/23 11:49:10;;;;;;;6.05;3.30;;;20.50;32.60;;;;;;5018828;28;20335;-84
2022/02/23 11:51:37;;;;;;;4.32;2.70;;;20.70;31.20;;;;;;5035050;28;20017;-84
2022/02/23 11:54:03;;;;;;;5.90;3.17;;;20.50;31.30;;;;;;5036502;28;20359;-84
2022/02/23 11:56:46;;;;;;;5.07;3.00;;;20.10;32.30;;;;;;5018567;28;20025;-84
2022/02/23 11:59:45;;;;;;;6.22;3.10;;;20.40;31.80;;;;;;5018594;28;20423;-84
2022/02/23 12:02:12;;;;;;;5.85;2.80;;;20.40;30.50;;;;;;5034200;28;20036;-83
2022/02/23 12:04:49;;;;;;;5.80;3.17;;;20.40;33.10;;;;;;5018105;28;20029;-84
2022/02/23 12:07:16;;;;;;;5.13;3.40;;;20.90;30.70;;;;;;5017391;28;20124;-84
2022/02/23 12:10:27;;;;;;;5.40;3.50;;;21.20;32.20;;;;;;5017948;28;20026;-84
2022/02/23 12:12:54;;;;;;;7.05;3.50;;;21.20;30.60;;;;;;5035863;28;20021;-83
2022/02/23 12:15:30;;;;;;;5.28;3.00;;;21.40;31.00;;;;;;5034770;28;20022;-84
2022/02/23 12:18:15;;;;;;;5.38;2.90;;;21.30;30.30;;;;;;5017787;28;20029;-84
2022/02/23 12:20:45;;;;;;;5.55;3.42;;;20.90;30.00;;;;;;5036284;28;20037;-83
2022/02/23 12:23:19;;;;;;;4.93;3.08;;;20.40;31.20;;;;;;5034600;28;20463;-84
2022/02/23 12:25:51;;;;;;;6.07;3.38;;;20.50;31.40;;;;;;5034562;28;20045;-83
2022/02/23 12:28:26;;;;;;;6.50;3.53;;;20.40;30.80;;;;;;5018411;28;20021;-83
2022/02/23 12:31:01;;;;;;;4.55;2.75;;;19.90;31.30;;;;;;5017777;28;20045;-84
2022/02/23 12:33:28;;;;;;;5.47;3.50;;;19.80;31.60;;;;;;5035903;28;20026;-85
2022/02/23 12:35:54;;;;;;;5.43;3.10;;;19.90;32.00;;;;;;5035209;28;20025;-84
2022/02/23 12:38:32;;;;;;;7.38;4.10;;;20.20;32.00;;;;;;5018107;28;20021;-84
2022/02/23 12:41:00;;;;;;;7.70;4.32;;;20.40;31.10;;;;;;5035140;28;20017;-84
2022/02/23 12:43:27;;;;;;;5.78;3.80;;;20.70;31.80;;;;;;5017433;28;20047;-84
2022/02/23 12:45:58;;;;;;;5.38;3.17;;;20.70;31.30;;;;;;5034938;28;20075;-84
2022/02/23 12:48:30;;;;;;;;;;;20.30;30.40;;;;;;5034847;28;20021;-85
2022/02/23 12:50:57;;;;;;;3.08;2.30;;;19.40;30.20;;;;;;5017181;28;19955;-84
2022/02/23 12:53:43;;;;;;;4.13;2.45;;;19.40;32.20;;;;;;5034852;28;20028;-84
2022/02/23 12:56:18;;;;;;;4.95;2.60;;;19.60;30.60;;;;;;5034427;28;20029;-83
2022/02/23 12:58:45;;;;;;;4.65;2.60;;;19.80;31.40;;;;;;5035098;28;20514;-85
2022/02/23 13:01:26;;;;;;;5.53;2.95;;;20.10;31.60;;;;;;5036831;28;20021;-84
2022/02/23 13:03:53;;;;;;;3.35;2.42;;;20.20;30.30;;;;;;5018244;28;20104;-86
2022/02/23 13:06:28;;;;;;;4.55;2.50;;;20.10;30.40;;;;;;5017127;28;20029;-84